Time;durP1;ratioP1;P1;durP2;ratioP2;P2;SDS_P1;SDS_P2;PMS_P1;PMS_P2;Temp;Humidity;BMP_temperature;BMP_pressure;BME280_temperature;BME280_humidity;BME280_pressure;Samples;Min_cycle;Max_cycle;Signal;HPM_P1;HPM_P2
2022/10/07 04:01:11;;;;;;;7.33;5.13;;;5.40;96.30;;;;;;5638938;23;20525;-78
2022/10/07 04:03:36;;;;;;;5.03;3.17;;;5.00;96.30;;;;;;4956634;28;20461;-80
2022/10/07 04:06:02;;;;;;;6.83;2.87;;;4.60;96.30;;;;;;4957656;28;20411;-78
2022/10/07 04:08:29;;;;;;;3.67;2.80;;;4.20;96.30;;;;;;4955697;28;20195;-77
2022/10/07 04:10:58;;;;;;;8.00;3.30;;;3.90;96.30;;;;;;4956733;28;21188;-77
2022/10/07 04:13:24;;;;;;;16.13;11.60;;;3.60;96.30;;;;;;4955958;29;20414;-79
2022/10/07 04:15:50;;;;;;;20.70;12.40;;;4.00;96.30;;;;;;4956422;29;20421;-78
2022/10/07 04:18:16;;;;;;;27.43;16.27;;;4.80;96.30;;;;;;4955733;28;20198;-76
2022/10/07 04:25:52;;;;;;;12.67;5.40;;;4.80;96.30;;;;;;5046499;23;20486;-79
2022/10/07 04:28:20;;;;;;;5.17;3.20;;;4.40;96.30;;;;;;4953504;29;20423;-79
2022/10/07 04:30:50;;;;;;;6.70;3.63;;;4.10;96.30;;;;;;4954003;29;20210;-81
2022/10/07 04:33:16;;;;;;;4.50;2.83;;;3.80;96.30;;;;;;4954067;29;20509;-80
2022/10/07 04:35:43;;;;;;;6.30;2.83;;;3.70;96.30;;;;;;4955298;28;20415;-80
2022/10/07 04:38:12;;;;;;;6.40;3.13;;;3.50;96.30;;;;;;4954747;28;20962;-80
2022/10/07 04:40:39;;;;;;;4.73;3.30;;;3.40;96.30;;;;;;4947265;28;20451;-81
2022/10/07 04:43:18;;;;;;;3.60;2.80;;;3.30;96.30;;;;;;4936064;29;20407;-79
2022/10/07 04:45:48;;;;;;;9.97;6.70;;;3.30;96.30;;;;;;4934715;29;20471;-80
2022/10/07 04:48:16;;;;;;;8.67;6.40;;;3.30;96.30;;;;;;4933928;29;20756;-80
2022/10/07 04:50:42;;;;;;;12.03;9.67;;;3.20;96.30;;;;;;4934500;29;20471;-79
2022/10/07 04:53:09;;;;;;;30.40;16.43;;;3.20;96.30;;;;;;4934477;29;20420;-80
2022/10/07 04:55:39;;;;;;;12.57;7.13;;;3.20;96.30;;;;;;4935819;29;20180;-80
2022/10/07 04:58:06;;;;;;;13.03;8.70;;;3.00;96.30;;;;;;4935151;29;20452;-81
2022/10/07 05:00:32;;;;;;;10.70;8.20;;;2.90;96.30;;;;;;4934450;29;20439;-81
2022/10/07 05:02:58;;;;;;;10.93;7.30;;;2.90;96.30;;;;;;4934475;29;20430;-82
2022/10/07 05:06:04;;;;;;;14.03;6.73;;;2.80;96.30;;;;;;4934189;29;20530;-81
2022/10/07 05:08:30;;;;;;;30.70;17.00;;;2.90;96.30;;;;;;4934207;29;20492;-81
2022/10/07 05:10:57;;;;;;;18.20;11.03;;;3.20;96.30;;;;;;4934662;29;21007;-80
2022/10/07 05:13:25;;;;;;;20.87;10.83;;;3.30;96.30;;;;;;4934600;29;20427;-81
2022/10/07 05:15:58;;;;;;;18.93;11.37;;;3.30;96.30;;;;;;4935843;29;20907;-81
2022/10/07 05:18:25;;;;;;;11.10;8.20;;;3.30;96.30;;;;;;4934063;29;20896;-81
2022/10/07 05:20:51;;;;;;;14.30;7.27;;;3.30;96.30;;;;;;4934241;29;20436;-81
2022/10/07 05:23:19;;;;;;;10.63;7.40;;;3.20;96.30;;;;;;4935155;29;20506;-81
2022/10/07 05:25:45;;;;;;;11.40;10.20;;;3.20;96.30;;;;;;4934527;29;20462;-81
2022/10/07 05:28:12;;;;;;;14.50;10.30;;;3.20;96.30;;;;;;4933951;29;20437;-81
2022/10/07 05:30:38;;;;;;;14.53;9.90;;;3.20;96.30;;;;;;4934240;29;20502;-82
2022/10/07 05:33:04;;;;;;;9.33;6.83;;;3.40;96.30;;;;;;4934284;29;20428;-81
2022/10/07 05:35:30;;;;;;;12.00;7.57;;;3.80;96.30;;;;;;4934337;29;20187;-82
2022/10/07 05:37:56;;;;;;;11.27;6.23;;;4.50;96.30;;;;;;4933628;29;20184;-81
2022/10/07 05:40:22;;;;;;;7.57;5.70;;;5.20;96.30;;;;;;4935159;29;20801;-80
2022/10/07 05:42:48;;;;;;;7.70;4.70;;;5.50;96.30;;;;;;4933824;29;20648;-81
2022/10/07 05:45:14;;;;;;;11.57;5.57;;;6.00;96.30;;;;;;4933608;29;20486;-79
2022/10/07 05:47:39;;;;;;;9.50;5.50;;;6.40;96.30;;;;;;4933425;29;20463;-79
2022/10/07 05:50:06;;;;;;;10.17;4.80;;;6.90;96.30;;;;;;4934989;29;20246;-79
2022/10/07 05:52:32;;;;;;;7.33;5.10;;;7.40;96.30;;;;;;4934734;29;20569;-80
2022/10/07 05:54:57;;;;;;;7.40;4.17;;;8.10;96.30;;;;;;4934837;29;20423;-82
2022/10/07 05:57:23;;;;;;;5.93;4.63;;;8.60;96.30;;;;;;4953572;28;20253;-82
2022/10/07 05:59:49;;;;;;;7.23;5.13;;;9.30;96.30;;;;;;4954169;28;20183;-81
2022/10/07 06:02:17;;;;;;;13.70;5.37;;;10.00;96.30;;;;;;4954088;28;20326;-81
2022/10/07 06:04:45;;;;;;;8.13;5.43;;;11.10;96.30;;;;;;4953949;28;20465;-81
2022/10/07 06:07:10;;;;;;;7.53;4.80;;;12.10;96.30;;;;;;4953435;28;20553;-80
2022/10/07 06:15:05;;;;;;;5.53;4.53;;;13.60;96.30;;;;;;4935492;29;20402;-80
2022/10/07 06:17:31;;;;;;;7.33;4.87;;;13.40;96.30;;;;;;4934315;29;20445;-82
2022/10/07 06:19:56;;;;;;;9.73;7.07;;;13.10;96.30;;;;;;4945733;29;20524;-79
2022/10/07 06:22:22;;;;;;;9.60;5.17;;;13.00;96.30;;;;;;4934548;29;20204;-79
2022/10/07 06:24:50;;;;;;;6.53;5.00;;;12.80;96.30;;;;;;4947389;29;20694;-79
2022/10/07 06:27:16;;;;;;;7.10;5.43;;;13.10;96.30;;;;;;4953262;28;20558;-79
2022/10/07 06:29:42;;;;;;;9.63;5.03;;;13.60;96.30;;;;;;4953367;29;20502;-80
2022/10/07 06:32:08;;;;;;;12.87;5.63;;;14.00;96.30;;;;;;4951579;29;20214;-80
2022/10/07 06:34:33;;;;;;;6.40;5.17;;;14.60;96.30;;;;;;4956044;28;20418;-79
2022/10/07 06:36:59;;;;;;;9.70;4.90;;;15.50;96.30;;;;;;4957379;29;20179;-80
2022/10/07 06:39:24;;;;;;;10.37;6.83;;;16.00;96.30;;;;;;4957357;29;20183;-80
2022/10/07 06:41:53;;;;;;;9.43;6.17;;;16.10;96.30;;;;;;4957380;29;20206;-80
2022/10/07 06:44:18;;;;;;;13.60;5.00;;;16.10;96.30;;;;;;4957301;28;20253;-80
2022/10/07 06:46:44;;;;;;;8.13;4.77;;;16.50;96.30;;;;;;4955817;28;20426;-80
2022/10/07 06:49:09;;;;;;;5.53;4.07;;;16.50;96.30;;;;;;4957257;29;20624;-80
2022/10/07 06:51:35;;;;;;;7.03;4.83;;;16.30;96.30;;;;;;4957155;29;20230;-79
2022/10/07 06:54:00;;;;;;;7.53;5.30;;;16.40;96.30;;;;;;4957040;29;20175;-77
2022/10/07 06:56:26;;;;;;;6.47;5.43;;;16.90;96.30;;;;;;4957183;29;20711;-77
2022/10/07 06:58:52;;;;;;;6.40;5.20;;;17.60;96.30;;;;;;4956804;29;20336;-77
2022/10/07 07:01:17;;;;;;;7.00;4.70;;;18.40;96.30;;;;;;4956870;29;20187;-77
2022/10/07 07:03:43;;;;;;;5.03;4.53;;;18.90;96.30;;;;;;4956723;29;20217;-77
2022/10/07 07:06:09;;;;;;;6.57;5.00;;;19.10;96.30;;;;;;4957667;29;20639;-77
2022/10/07 07:08:36;;;;;;;6.43;5.33;;;19.40;96.30;;;;;;4957497;28;20178;-77
2022/10/07 07:11:34;;;;;;;8.97;6.67;;;18.80;96.30;;;;;;4957604;29;20440;-77
2022/10/07 07:13:53;;;;;;;7.40;6.10;;;18.90;96.30;;;;;;4957801;28;20426;-77
2022/10/07 07:16:18;;;;;;;8.63;5.40;;;18.50;96.30;;;;;;4957667;28;20406;-77
2022/10/07 07:18:44;;;;;;;7.20;5.50;;;18.30;96.30;;;;;;4957374;29;20509;-77
2022/10/07 07:21:10;;;;;;;8.47;6.47;;;18.20;96.30;;;;;;4957903;28;20206;-77
2022/10/07 07:23:36;;;;;;;5.30;4.37;;;18.30;96.30;;;;;;4957102;29;20846;-76
2022/10/07 07:26:01;;;;;;;9.00;5.60;;;17.10;96.30;;;;;;4957010;29;20579;-76
2022/10/07 07:28:26;;;;;;;6.27;4.30;;;16.80;96.30;;;;;;4955589;29;20206;-76
2022/10/07 07:30:52;;;;;;;4.70;4.00;;;15.80;96.30;;;;;;4956677;29;20273;-76
2022/10/07 07:33:17;;;;;;;8.73;4.47;;;14.90;96.30;;;;;;4956365;29;20171;-76
2022/10/07 07:35:43;;;;;;;5.07;3.80;;;14.40;96.30;;;;;;4956418;29;20182;-76
2022/10/07 07:38:09;;;;;;;6.93;3.77;;;14.00;96.30;;;;;;4956013;28;20202;-76
2022/10/07 07:40:36;;;;;;;7.67;4.87;;;13.70;96.30;;;;;;4954937;28;20195;-76
2022/10/07 07:43:02;;;;;;;7.17;5.37;;;13.40;96.30;;;;;;4954841;29;20182;-75
2022/10/07 07:45:30;;;;;;;6.70;5.57;;;13.10;96.30;;;;;;4955518;28;20466;-75
2022/10/07 07:47:57;;;;;;;8.50;5.30;;;12.70;96.30;;;;;;4956069;28;20175;-78
2022/10/07 07:50:25;;;;;;;6.13;3.87;;;12.50;96.30;;;;;;4956048;28;20459;-78
2022/10/07 07:52:51;;;;;;;7.27;4.10;;;12.40;96.30;;;;;;4955023;28;20423;-78
2022/10/07 07:55:17;;;;;;;5.30;4.13;;;12.30;96.30;;;;;;4956223;29;20434;-78
2022/10/07 07:57:43;;;;;;;7.47;5.00;;;12.20;96.30;;;;;;4955833;28;20407;-78
2022/10/07 08:00:10;;;;;;;9.80;4.40;;;12.10;96.30;;;;;;4956195;29;20425;-78
2022/10/07 08:02:36;;;;;;;9.30;4.30;;;12.00;96.30;;;;;;4956045;28;20643;-78
2022/10/07 08:05:01;;;;;;;6.77;4.30;;;12.10;96.30;;;;;;4956097;29;20494;-78
2022/10/07 08:07:27;;;;;;;6.00;4.10;;;12.10;96.30;;;;;;4954662;29;20525;-78
2022/10/07 08:09:52;;;;;;;7.90;4.20;;;12.20;96.30;;;;;;4956089;29;20190;-78
2022/10/07 08:12:19;;;;;;;6.40;4.40;;;12.20;96.30;;;;;;4955958;28;20561;-78
2022/10/07 08:14:45;;;;;;;5.37;4.10;;;12.20;96.30;;;;;;4956196;28;20174;-78
2022/10/07 08:17:11;;;;;;;7.10;4.87;;;12.30;96.30;;;;;;4955846;29;20407;-78
2022/10/07 08:19:37;;;;;;;8.50;3.80;;;12.40;96.30;;;;;;4956008;29;20175;-77
2022/10/07 08:22:03;;;;;;;7.93;4.20;;;12.50;96.30;;;;;;4955789;28;20219;-78
2022/10/07 08:24:28;;;;;;;5.60;4.30;;;12.70;96.30;;;;;;4955754;28;20462;-78
2022/10/07 08:26:54;;;;;;;5.20;3.50;;;12.80;96.30;;;;;;4955515;29;20179;-78
2022/10/07 08:29:20;;;;;;;8.03;3.67;;;12.90;96.30;;;;;;4955798;29;20667;-78
2022/10/07 08:31:47;;;;;;;5.10;3.00;;;13.00;96.30;;;;;;4955420;29;20191;-78
2022/10/07 08:34:13;;;;;;;3.27;2.43;;;13.20;96.30;;;;;;4955824;29;20502;-78
2022/10/07 08:36:39;;;;;;;8.40;3.30;;;13.40;96.30;;;;;;4954363;29;20430;-78
2022/10/07 08:39:06;;;;;;;2.87;2.17;;;13.70;96.30;;;;;;4954279;29;20462;-78
2022/10/07 08:41:53;;;;;;;4.20;2.40;;;14.00;96.30;;;;;;4955401;29;20442;-78
2022/10/07 08:44:28;;;;;;;5.33;2.23;;;14.30;96.30;;;;;;4954952;29;20509;-78
2022/10/07 08:46:56;;;;;;;4.47;2.43;;;14.80;96.30;;;;;;4953771;29;20429;-78
2022/10/07 08:49:38;;;;;;;4.50;2.63;;;15.80;96.30;;;;;;4954832;28;20450;-78
2022/10/07 08:52:27;;;;;;;2.50;2.27;;;16.60;96.30;;;;;;4953883;29;20446;-78
2022/10/07 08:54:53;;;;;;;6.13;2.47;;;17.60;96.30;;;;;;4940631;29;20437;-76
2022/10/07 08:57:36;;;;;;;4.67;1.90;;;17.80;96.30;;;;;;4953649;28;20513;-76
2022/10/07 09:00:07;;;;;;;8.80;2.80;;;18.50;96.30;;;;;;4952770;28;20182;-77
2022/10/07 09:02:58;;;;;;;6.17;2.30;;;18.80;96.30;;;;;;4952366;29;20478;-76
2022/10/07 09:05:32;;;;;;;3.97;2.03;;;18.60;96.30;;;;;;4955322;28;20590;-77
2022/10/07 09:08:03;;;;;;;6.70;2.67;;;18.80;96.30;;;;;;4954005;28;20517;-77
2022/10/07 09:10:48;;;;;;;2.70;2.03;;;19.60;96.30;;;;;;4955317;29;20426;-77
2022/10/07 09:13:34;;;;;;;6.30;2.03;;;19.70;96.30;;;;;;4955687;28;20391;-77
2022/10/07 09:16:02;;;;;;;5.63;2.30;;;20.00;96.30;;;;;;4952946;28;20497;-77
2022/10/07 09:18:49;;;;;;;2.70;2.10;;;20.30;96.30;;;;;;4942603;29;20458;-77
2022/10/07 09:21:41;;;;;;;7.50;2.70;;;20.80;96.30;;;;;;4948189;28;20450;-77
2022/10/07 09:24:35;;;;;;;7.50;2.30;;;20.20;96.30;;;;;;4955475;28;20804;-77
2022/10/07 09:27:12;;;;;;;3.30;2.50;;;20.30;96.30;;;;;;4954107;29;20458;-77
2022/10/07 09:29:37;;;;;;;3.40;2.17;;;20.40;96.30;;;;;;4955819;28;20446;-77
2022/10/07 09:32:03;;;;;;;3.70;2.60;;;20.40;96.30;;;;;;4955129;29;20447;-77
2022/10/07 09:34:30;;;;;;;4.30;2.80;;;20.30;96.30;;;;;;4943919;29;20651;-77
2022/10/07 09:37:18;;;;;;;5.10;2.73;;;20.00;96.30;;;;;;4950702;29;20186;-77
2022/10/07 09:39:44;;;;;;;3.87;2.53;;;19.90;96.30;;;;;;4949662;29;20418;-77
2022/10/07 09:42:28;;;;;;;3.23;2.60;;;19.80;96.30;;;;;;4954887;28;20446;-77
2022/10/07 09:44:59;;;;;;;12.20;3.80;;;20.00;96.30;;;;;;4955129;28;20969;-77
2022/10/07 09:47:28;;;;;;;6.63;3.70;;;20.10;96.30;;;;;;4954393;28;20426;-77
2022/10/07 09:49:58;;;;;;;8.30;3.33;;;19.80;96.30;;;;;;4955219;28;20435;-77
2022/10/07 09:52:26;;;;;;;3.77;3.37;;;19.50;96.30;;;;;;4954721;28;20889;-77
2022/10/07 09:54:54;;;;;;;6.10;2.70;;;19.70;96.30;;;;;;4955714;29;20422;-77
2022/10/07 09:57:25;;;;;;;5.07;2.73;;;20.00;96.30;;;;;;4953883;28;20529;-77
2022/10/07 10:00:00;;;;;;;5.27;3.13;;;20.30;96.30;;;;;;4953881;29;20869;-77
2022/10/07 10:02:26;;;;;;;8.10;2.97;;;20.50;96.30;;;;;;4955509;29;20445;-77
2022/10/07 10:04:56;;;;;;;4.20;2.80;;;20.70;96.30;;;;;;4955206;29;20505;-77
2022/10/07 10:07:32;;;;;;;5.60;3.57;;;20.50;96.30;;;;;;4955332;28;20456;-77
2022/10/07 10:10:03;;;;;;;8.17;3.30;;;20.50;96.30;;;;;;4959051;29;20410;-77
2022/10/07 10:12:33;;;;;;;3.40;2.90;;;20.60;96.30;;;;;;4940257;29;20447;-77
2022/10/07 10:15:00;;;;;;;5.13;3.07;;;20.90;96.30;;;;;;4940351;29;20430;-77
2022/10/07 10:17:30;;;;;;;6.03;3.40;;;20.50;96.30;;;;;;4938283;29;20427;-77
2022/10/07 10:20:18;;;;;;;5.00;2.93;;;20.60;96.30;;;;;;4939771;29;20422;-77
2022/10/07 10:22:44;;;;;;;7.73;3.50;;;20.40;96.30;;;;;;4939523;29;20420;-77
2022/10/07 10:28:06;;;;;;;6.20;2.90;;;20.70;96.30;;;;;;4939601;29;20667;-77
2022/10/07 10:30:37;;;;;;;3.27;2.70;;;21.10;96.30;;;;;;4939910;29;20433;-77
2022/10/07 10:33:18;;;;;;;5.10;3.80;;;20.60;96.30;;;;;;4940214;29;20868;-77
2022/10/07 10:35:54;;;;;;;5.27;3.00;;;19.80;96.30;;;;;;4945591;29;20434;-77
2022/10/07 10:38:52;;;;;;;3.70;2.80;;;20.10;96.30;;;;;;4958653;29;20398;-77
2022/10/07 10:41:24;;;;;;;5.20;2.60;;;20.90;96.30;;;;;;4958190;29;20454;-77
2022/10/07 10:44:01;;;;;;;4.63;1.73;;;21.30;96.30;;;;;;4958882;29;20457;-77
2022/10/07 10:46:57;;;;;;;2.50;1.90;;;21.40;95.50;;;;;;4959072;29;20449;-77
2022/10/07 10:50:03;;;;;;;4.17;1.90;;;21.50;96.30;;;;;;4958898;29;20402;-77
2022/10/07 10:52:43;;;;;;;3.03;1.43;;;20.60;96.30;;;;;;4958046;28;21013;-77
2022/10/07 10:55:41;;;;;;;6.87;1.60;;;20.70;96.30;;;;;;4955953;29;20449;-77
2022/10/07 10:58:28;;;;;;;2.90;1.43;;;20.80;95.80;;;;;;4955071;29;20422;-77
2022/10/07 11:01:10;;;;;;;3.10;1.10;;;20.50;96.30;;;;;;4953894;28;20450;-77
2022/10/07 11:03:57;;;;;;;3.10;1.30;;;20.80;96.30;;;;;;4955536;29;20793;-76
2022/10/07 11:06:27;;;;;;;4.63;1.70;;;20.90;96.30;;;;;;4959478;28;20411;-74
2022/10/07 11:08:54;;;;;;;2.60;1.17;;;20.60;96.30;;;;;;4957184;28;20418;-74
2022/10/07 11:11:21;;;;;;;3.40;1.77;;;20.90;96.30;;;;;;4956152;29;20889;-74
2022/10/07 11:13:58;;;;;;;1.80;1.27;;;21.00;96.30;;;;;;4956546;28;20414;-74
2022/10/07 11:16:35;;;;;;;4.30;1.20;;;21.00;96.30;;;;;;4956438;28;20410;-75
2022/10/07 11:19:13;;;;;;;2.73;1.83;;;21.10;95.20;;;;;;4955845;28;20410;-75
2022/10/07 11:21:55;;;;;;;3.60;1.50;;;21.10;96.30;;;;;;4954651;28;20463;-75
2022/10/07 11:24:31;;;;;;;1.87;1.10;;;20.80;96.30;;;;;;4956192;28;20466;-74
2022/10/07 11:27:26;;;;;;;4.33;1.47;;;21.10;96.30;;;;;;4956109;28;20418;-74
2022/10/07 11:29:58;;;;;;;5.73;1.60;;;21.00;96.30;;;;;;4956476;28;20414;-74
2022/10/07 11:32:43;;;;;;;6.50;1.40;;;20.80;96.30;;;;;;4954987;28;20438;-74
2022/10/07 11:35:31;;;;;;;2.20;1.30;;;20.50;96.30;;;;;;4954900;28;20474;-74
2022/10/07 11:38:13;;;;;;;3.43;1.50;;;20.20;96.30;;;;;;4955905;28;20893;-74
2022/10/07 11:40:52;;;;;;;2.33;1.37;;;20.00;96.30;;;;;;4956174;28;20926;-74
2022/10/07 11:43:33;;;;;;;3.27;1.40;;;19.90;96.30;;;;;;4956142;28;20398;-74
2022/10/07 11:46:09;;;;;;;3.97;1.83;;;19.80;96.30;;;;;;4956250;28;20499;-77
2022/10/07 11:48:59;;;;;;;3.50;1.20;;;20.10;96.30;;;;;;4954999;28;20414;-75
2022/10/07 11:51:53;;;;;;;6.43;1.60;;;20.40;96.30;;;;;;4955451;28;20427;-76
2022/10/07 11:54:21;;;;;;;2.40;0.90;;;20.70;96.30;;;;;;4955240;29;20419;-76
2022/10/07 11:56:50;;;;;;;3.97;1.50;;;20.60;96.30;;;;;;4955561;29;20418;-76
2022/10/07 11:59:42;;;;;;;4.43;1.20;;;21.00;96.30;;;;;;4955706;28;20411;-76
2022/10/07 12:02:29;;;;;;;3.03;1.17;;;20.70;96.30;;;;;;4955720;28;20914;-76
2022/10/07 12:04:54;;;;;;;4.70;1.47;;;20.60;96.30;;;;;;4955605;29;20506;-76
2022/10/07 12:07:55;;;;;;;2.23;1.10;;;20.70;96.30;;;;;;4954054;29;20922;-75
2022/10/07 12:10:25;;;;;;;6.30;1.53;;;20.70;96.10;;;;;;4955533;28;20669;-76
2022/10/07 12:13:00;;;;;;;2.47;1.40;;;20.50;96.30;;;;;;4954382;28;20426;-76
2022/10/07 12:15:35;;;;;;;3.70;1.17;;;20.50;95.80;;;;;;4955620;29;20406;-76
2022/10/07 12:18:03;;;;;;;2.57;1.03;;;20.20;96.30;;;;;;4955136;29;20487;-76
2022/10/07 12:20:51;;;;;;;9.60;1.40;;;20.20;96.30;;;;;;4955341;29;20414;-76
2022/10/07 12:23:17;;;;;;;2.97;1.23;;;20.10;96.30;;;;;;4955415;28;20497;-75
2022/10/07 12:25:51;;;;;;;2.70;1.20;;;19.90;96.30;;;;;;4955189;28;20553;-76
2022/10/07 12:28:39;;;;;;;3.93;1.10;;;20.30;96.30;;;;;;4955107;29;20238;-76
2022/10/07 12:31:15;;;;;;;4.03;1.50;;;20.30;95.30;;;;;;4955092;28;20830;-76
2022/10/07 12:34:08;;;;;;;10.13;1.50;;;20.30;95.70;;;;;;4953891;29;20426;-76
2022/10/07 12:36:35;;;;;;;9.40;3.30;;;20.30;96.30;;;;;;4955135;28;20469;-76
2022/10/07 12:39:01;;;;;;;2.40;1.20;;;20.50;94.40;;;;;;4954777;29;20777;-76
2022/10/07 12:41:37;;;;;;;2.93;1.30;;;20.60;96.30;;;;;;4955011;29;20430;-76
2022/10/07 12:44:25;;;;;;;5.60;1.50;;;20.70;94.90;;;;;;4954918;28;20195;-75
2022/10/07 12:47:05;;;;;;;2.93;1.10;;;20.60;93.90;;;;;;4954747;28;20490;-75
2022/10/07 12:49:35;;;;;;;4.27;1.47;;;20.70;96.30;;;;;;4954796;28;20497;-75
2022/10/07 12:52:10;;;;;;;4.70;1.37;;;20.90;95.70;;;;;;4954773;28;20533;-75
2022/10/07 12:55:10;;;;;;;3.10;1.33;;;20.40;96.30;;;;;;4954396;28;20418;-75
2022/10/07 12:57:38;;;;;;;6.20;1.00;;;20.20;96.30;;;;;;4945657;29;20482;-75
2022/10/07 13:00:11;;;;;;;2.27;1.00;;;20.10;96.30;;;;;;4955230;28;20411;-73
2022/10/07 13:03:09;;;;;;;4.17;2.00;;;20.20;96.30;;;;;;4951806;28;20451;-73
2022/10/07 13:05:53;;;;;;;2.50;1.27;;;20.20;96.30;;;;;;4929203;29;21089;-76
2022/10/07 13:08:50;;;;;;;3.30;1.60;;;20.60;94.90;;;;;;4954546;28;20415;-76
2022/10/07 13:11:24;;;;;;;7.77;1.30;;;20.30;96.30;;;;;;4938995;29;20443;-73
2022/10/07 13:13:53;;;;;;;5.83;1.87;;;20.50;96.30;;;;;;4946040;28;20434;-73
2022/10/07 13:16:35;;;;;;;3.50;1.10;;;20.60;96.30;;;;;;4964744;28;20504;-73
2022/10/07 13:19:18;;;;;;;4.50;1.33;;;20.90;96.30;;;;;;4954330;28;20569;-74
2022/10/07 13:22:13;;;;;;;6.80;1.57;;;21.20;95.50;;;;;;4953198;28;21084;-74
2022/10/07 13:24:48;;;;;;;4.97;1.70;;;20.80;92.90;;;;;;4953089;28;20470;-74
2022/10/07 13:27:18;;;;;;;2.23;1.20;;;20.50;96.30;;;;;;4936189;28;20430;-74
2022/10/07 13:29:46;;;;;;;5.40;1.47;;;20.70;96.30;;;;;;4935512;29;20408;-75
2022/10/07 13:32:29;;;;;;;3.77;1.37;;;20.90;96.30;;;;;;4935316;29;20431;-74
2022/10/07 13:34:56;;;;;;;5.40;1.60;;;21.00;96.30;;;;;;4934115;29;20424;-76
2022/10/07 13:37:26;;;;;;;2.40;1.03;;;21.10;96.30;;;;;;4934710;29;20487;-75
2022/10/07 13:39:52;;;;;;;2.40;1.10;;;20.90;96.10;;;;;;4935240;29;20411;-73
2022/10/07 13:42:18;;;;;;;2.97;1.63;;;20.70;96.30;;;;;;4934549;29;20931;-75
2022/10/07 13:44:44;;;;;;;1.60;1.00;;;20.80;96.30;;;;;;4935038;29;20195;-72
2022/10/07 13:47:18;;;;;;;12.03;1.47;;;20.70;96.30;;;;;;4934278;29;20416;-72
2022/10/07 13:49:51;;;;;;;3.37;1.63;;;20.50;94.90;;;;;;4934649;29;20238;-74
2022/10/07 13:52:27;;;;;;;4.83;1.30;;;20.30;96.30;;;;;;4935893;29;20510;-74
2022/10/07 13:54:53;;;;;;;6.90;1.37;;;20.30;96.30;;;;;;4935413;29;20392;-74
2022/10/07 13:57:20;;;;;;;3.47;1.43;;;20.40;96.30;;;;;;4933361;29;20427;-75
2022/10/07 13:59:47;;;;;;;2.40;1.10;;;20.10;96.30;;;;;;4935297;29;20525;-74
2022/10/07 14:02:14;;;;;;;7.50;1.90;;;19.90;96.30;;;;;;4935003;29;20439;-74
2022/10/07 14:04:58;;;;;;;3.20;1.63;;;19.70;96.30;;;;;;4934990;29;20466;-74
2022/10/07 14:07:26;;;;;;;8.50;2.00;;;19.50;96.30;;;;;;4934833;29;20388;-75
2022/10/07 14:09:58;;;;;;;10.23;1.50;;;19.50;96.30;;;;;;4934898;29;20547;-74
2022/10/07 14:12:43;;;;;;;5.13;1.47;;;19.40;96.30;;;;;;4934920;29;20431;-76
2022/10/07 14:15:20;;;;;;;1.80;1.20;;;19.40;96.30;;;;;;4939691;29;20402;-74
2022/10/07 14:17:49;;;;;;;8.70;1.30;;;19.50;96.30;;;;;;4953307;29;20446;-76
2022/10/07 14:20:30;;;;;;;7.50;1.30;;;19.50;96.30;;;;;;4954041;28;20425;-74
2022/10/07 14:22:59;;;;;;;4.47;1.63;;;19.30;96.30;;;;;;4954338;28;20898;-75
2022/10/07 14:25:27;;;;;;;3.87;1.50;;;19.30;96.30;;;;;;4953771;28;20470;-77
2022/10/07 14:28:01;;;;;;;4.90;1.20;;;19.20;96.30;;;;;;4953994;28;20969;-77
2022/10/07 14:30:27;;;;;;;5.27;1.70;;;19.20;96.30;;;;;;4954570;29;20426;-77
2022/10/07 14:36:16;;;;;;;3.60;1.27;;;19.00;96.30;;;;;;4954509;29;20288;-77
2022/10/07 14:38:43;;;;;;;8.30;2.10;;;18.80;96.30;;;;;;4953617;29;20403;-77
2022/10/07 14:41:09;;;;;;;2.03;1.40;;;18.40;96.30;;;;;;4954708;29;20489;-77
2022/10/07 14:43:36;;;;;;;3.67;1.30;;;18.50;96.30;;;;;;4954968;28;20411;-77
2022/10/07 14:46:10;;;;;;;3.37;1.80;;;18.50;96.30;;;;;;4954849;29;20945;-77
2022/10/07 14:48:36;;;;;;;4.47;1.90;;;18.30;96.30;;;;;;4954376;28;20414;-77
2022/10/07 14:51:02;;;;;;;2.27;1.57;;;18.20;96.30;;;;;;4952366;28;20446;-78
2022/10/07 14:53:28;;;;;;;2.97;1.40;;;18.20;96.30;;;;;;4944382;28;20182;-77
2022/10/07 14:55:53;;;;;;;4.07;1.50;;;18.10;96.30;;;;;;4966171;28;20182;-77
2022/10/07 14:58:19;;;;;;;11.90;1.90;;;18.10;96.30;;;;;;4976633;28;20201;-77
2022/10/07 15:00:44;;;;;;;5.93;1.50;;;18.10;96.30;;;;;;4975226;28;20217;-77
2022/10/07 15:03:10;;;;;;;3.97;1.77;;;18.10;96.30;;;;;;4977176;28;20178;-77
2022/10/07 15:05:36;;;;;;;2.77;1.23;;;18.10;96.30;;;;;;4977219;28;20549;-77
2022/10/07 15:08:02;;;;;;;7.23;1.50;;;17.90;96.30;;;;;;4976270;28;20193;-77
2022/10/07 15:10:31;;;;;;;4.27;1.80;;;17.90;96.30;;;;;;4976074;28;20778;-75
2022/10/07 15:12:58;;;;;;;2.77;1.40;;;17.90;96.30;;;;;;4973014;28;20410;-75
2022/10/07 15:15:23;;;;;;;10.30;1.43;;;17.90;96.30;;;;;;4957384;28;20478;-74
2022/10/07 15:17:49;;;;;;;2.10;1.10;;;17.90;96.30;;;;;;4960822;28;20426;-73
2022/10/07 15:20:15;;;;;;;7.13;1.80;;;17.80;96.30;;;;;;4956682;29;20639;-73
2022/10/07 15:22:42;;;;;;;9.90;1.80;;;17.70;96.30;;;;;;4956794;28;20179;-74
2022/10/07 15:25:09;;;;;;;7.53;1.40;;;17.60;96.30;;;;;;4955301;28;20466;-73
2022/10/07 15:27:36;;;;;;;3.50;1.43;;;17.60;96.30;;;;;;4955699;29;20415;-74
2022/10/07 15:30:02;;;;;;;8.93;2.07;;;17.50;96.30;;;;;;4956240;28;20428;-73
2022/10/07 15:32:29;;;;;;;2.73;1.50;;;17.30;96.30;;;;;;4956176;28;20797;-73
2022/10/07 15:34:56;;;;;;;5.83;1.53;;;17.20;96.30;;;;;;4955045;28;20427;-77
2022/10/07 15:37:22;;;;;;;7.90;2.90;;;17.10;96.30;;;;;;4955849;28;20788;-75
2022/10/07 15:39:48;;;;;;;5.97;3.03;;;17.00;96.30;;;;;;4956277;28;20434;-74
2022/10/07 15:42:14;;;;;;;23.30;13.83;;;16.90;96.30;;;;;;4956251;28;20667;-74
2022/10/07 15:44:42;;;;;;;10.83;6.00;;;16.80;96.30;;;;;;4956342;28;20211;-74
2022/10/07 15:47:08;;;;;;;14.20;4.47;;;16.60;96.30;;;;;;4955758;28;20855;-74
2022/10/07 15:49:35;;;;;;;7.23;3.60;;;16.50;96.30;;;;;;4954836;28;20509;-74
2022/10/07 15:52:01;;;;;;;8.00;3.50;;;16.30;96.30;;;;;;4955841;28;20341;-74
2022/10/07 15:54:26;;;;;;;19.17;5.23;;;16.30;96.30;;;;;;4956063;28;20423;-74
2022/10/07 15:56:52;;;;;;;6.87;3.00;;;16.20;96.30;;;;;;4955560;28;20423;-74
2022/10/07 15:59:19;;;;;;;13.40;5.27;;;16.20;96.30;;;;;;4956304;28;20183;-74
2022/10/07 16:01:45;;;;;;;23.17;9.57;;;16.10;96.30;;;;;;4956016;28;20461;-74
2022/10/07 16:04:12;;;;;;;9.30;6.90;;;16.00;96.30;;;;;;4955625;28;20462;-74
2022/10/07 16:06:38;;;;;;;6.20;4.23;;;16.00;96.30;;;;;;4955162;28;20407;-77
2022/10/07 16:09:04;;;;;;;7.57;3.20;;;15.90;96.30;;;;;;4955868;28;20429;-74
2022/10/07 16:11:32;;;;;;;4.80;2.63;;;15.90;96.30;;;;;;4955855;29;20697;-74
2022/10/07 16:13:59;;;;;;;10.00;2.17;;;15.90;96.30;;;;;;4955734;28;20764;-74
2022/10/07 16:16:26;;;;;;;8.17;3.93;;;15.80;96.30;;;;;;4955749;28;20445;-74
2022/10/07 16:18:53;;;;;;;6.33;3.43;;;15.70;96.30;;;;;;4955447;28;20410;-74
2022/10/07 16:21:21;;;;;;;10.07;2.23;;;15.70;96.30;;;;;;4955472;28;20454;-74
2022/10/07 16:23:48;;;;;;;5.83;1.93;;;15.60;96.30;;;;;;4954129;29;20773;-74
2022/10/07 16:26:16;;;;;;;8.13;2.10;;;15.60;96.30;;;;;;4955655;28;20470;-74
2022/10/07 16:31:32;;;;;;;8.10;3.30;;;15.50;96.30;;;;;;4955082;29;20477;-74
2022/10/07 16:33:58;;;;;;;6.23;2.60;;;15.30;96.30;;;;;;4955557;28;20501;-74
2022/10/07 16:36:25;;;;;;;8.63;2.40;;;15.30;96.30;;;;;;4955184;28;20991;-74
2022/10/07 16:38:52;;;;;;;6.53;2.57;;;15.20;96.30;;;;;;4952064;28;20181;-74
2022/10/07 16:41:18;;;;;;;6.83;2.00;;;15.10;96.30;;;;;;4947245;28;20458;-74
2022/10/07 16:43:44;;;;;;;8.60;2.10;;;15.10;96.30;;;;;;4954876;28;20478;-74
2022/10/07 16:46:17;;;;;;;4.93;2.20;;;15.00;96.30;;;;;;4955033;28;20510;-73
2022/10/07 16:48:43;;;;;;;3.57;1.80;;;14.80;96.30;;;;;;4954829;28;20410;-74
2022/10/07 16:51:17;;;;;;;4.30;2.40;;;14.60;96.30;;;;;;4954358;28;20466;-74
2022/10/07 16:53:45;;;;;;;13.50;4.27;;;14.30;96.30;;;;;;4952565;29;20414;-74
2022/10/07 16:56:12;;;;;;;26.23;14.87;;;14.00;96.30;;;;;;4950725;29;20546;-74
2022/10/07 16:58:39;;;;;;;38.30;21.97;;;13.80;96.30;;;;;;4947433;29;20960;-75
2022/10/07 17:01:11;;;;;;;78.30;40.87;;;13.60;96.30;;;;;;4954608;28;20777;-74
2022/10/07 17:03:38;;;;;;;60.47;31.40;;;13.50;96.30;;;;;;4954651;29;20415;-73
2022/10/07 17:06:06;;;;;;;47.50;24.87;;;13.40;96.30;;;;;;4954175;28;20493;-74
2022/10/07 17:08:33;;;;;;;49.87;27.30;;;13.30;96.30;;;;;;4954851;28;20418;-74
2022/10/07 17:22:56;;;;;;;35.73;21.77;;;12.70;96.30;;;;;;4933706;29;21007;-73
2022/10/07 17:25:22;;;;;;;28.00;18.23;;;12.60;96.30;;;;;;4935495;29;20455;-73
2022/10/07 17:27:47;;;;;;;29.20;15.30;;;12.50;96.30;;;;;;4932654;29;20182;-75
2022/10/07 17:30:15;;;;;;;73.00;34.60;;;12.30;96.30;;;;;;4925438;29;20602;-73
2022/10/07 17:32:41;;;;;;;109.70;50.00;;;12.20;96.30;;;;;;4896711;29;20565;-73
2022/10/07 17:35:07;;;;;;;81.00;39.00;;;12.10;96.30;;;;;;4910943;29;20984;-75
2022/10/07 17:37:33;;;;;;;49.00;24.87;;;12.10;96.30;;;;;;4914802;29;20177;-75